This is the latest recevied weather packets stored in our database for station/object DB2AG-13. If no packets are shown the sender has not sent any weather packets the latest 10 day(s).
| Time | Temp. | Humidity | Pressure | Rain* | Wind** | Luminosity | Snow |
|---|---|---|---|---|---|---|---|
| 1788032511 | 20° C | 52% | 1013.2 hPa | - | - | - | - |
| 1788031430 | 20.56° C | 50% | 1013.2 hPa | - | - | - | - |
| 1788030354 | 20.56° C | 48% | 1012.9 hPa | - | - | - | - |
| 1788029812 | 20.56° C | 49% | 1012.8 hPa | - | - | - | - |
| 1788029269 | 21.11° C | 48% | 1012.8 hPa | - | - | - | - |
| 1788028733 | 21.11° C | 49% | 1012.7 hPa | - | - | - | - |
| 1788028187 | 21.11° C | 48% | 1012.7 hPa | - | - | - | - |
| 1788027644 | 21.11° C | 48% | 1012.7 hPa | - | - | - | - |
| 1788027107 | 21.11° C | 48% | 1012.7 hPa | - | - | - | - |
| 1788026561 | 21.11° C | 48% | 1012.7 hPa | - | - | - | - |
| 1788026021 | 21.11° C | 48% | 1012.7 hPa | - | - | - | - |
| 1788025481 | 21.67° C | 47% | 1012.7 hPa | - | - | - | - |
| 1788024940 | 21.67° C | 47% | 1012.7 hPa | - | - | - | - |
| 1788023855 | 22.78° C | 44% | 1012.8 hPa | - | - | - | - |
| 1788023311 | 23.33° C | 43% | 1012.7 hPa | - | - | - | - |
| 1788022769 | 23.89° C | 42% | 1012.8 hPa | - | - | - | - |
| 1788022237 | 24.44° C | 41% | 1012.9 hPa | - | - | - | - |
| 1788021163 | 24.44° C | 41% | 1013 hPa | - | - | - | - |
| 1788020629 | 25° C | 41% | 1013.1 hPa | - | - | - | - |
| 1788020095 | 25° C | 41% | 1013.2 hPa | - | - | - | - |
| 1788019559 | 24.44° C | 42% | 1013.2 hPa | - | - | - | - |
| 1788019021 | 23.33° C | 44% | 1013.3 hPa | - | - | - | - |
| 1788018486 | 22.78° C | 44% | 1013.4 hPa | - | - | - | - |
| 1788017957 | 23.33° C | 43% | 1013.4 hPa | - | - | - | - |
| 1788017429 | 23.89° C | 42% | 1013.4 hPa | - | - | - | - |
* Rain since midnight (hover to see other rain measurements)
** Current wind speed in m/s (hover to see current wind gust speed)